Time;durP1;ratioP1;P1;durP2;ratioP2;P2;SDS_P1;SDS_P2;PMS_P1;PMS_P2;Temp;Humidity;BMP_temperature;BMP_pressure;BME280_temperature;BME280_humidity;BME280_pressure;Samples;Min_cycle;Max_cycle;Signal;HPM_P1;HPM_P2
2020/12/23 00:01:34;;;;;;;46.70;30.27;;;9.20;87.50;;;;;;4593304;28;20439;-80
2020/12/23 00:03:50;;;;;;;44.47;29.67;;;;;;;;;;4591437;28;20484;-78
2020/12/23 00:06:09;;;;;;;47.93;31.00;;;;;;;;;;4592449;28;20440;-77
2020/12/23 00:08:24;;;;;;;48.43;30.80;;;;;;;;;;4592869;28;20931;-76
2020/12/23 00:10:40;;;;;;;49.33;30.63;;;;;;;;;;4592921;28;20451;-76
2020/12/23 00:12:56;;;;;;;46.80;31.03;;;;;;;;;;4592936;28;20479;-79
2020/12/23 00:15:12;;;;;;;48.20;30.73;;;;;;;;;;4592926;28;20448;-79
2020/12/23 00:17:29;;;;;;;46.97;30.90;;;;;;;;;;4592970;28;20454;-78
2020/12/23 00:19:45;;;;;;;43.20;29.33;;;;;;;;;;4592854;28;20440;-81
2020/12/23 00:22:01;;;;;;;46.20;30.10;;;;;;;;;;4592857;28;20471;-81
2020/12/23 00:24:17;;;;;;;41.80;28.60;;;8.30;86.90;;;;;;4592467;28;20444;-79
2020/12/23 00:26:33;;;;;;;44.90;30.13;;;;;;;;;;4592991;28;20440;-80
2020/12/23 00:28:50;;;;;;;42.17;28.87;;;;;;;;;;4591354;28;20888;-81
2020/12/23 00:31:06;;;;;;;42.17;29.07;;;;;;;;;;4592606;28;20491;-80
2020/12/23 00:33:23;;;;;;;43.90;29.43;;;;;;;;;;4594608;28;20557;-79
2020/12/23 00:35:39;;;;;;;41.20;28.70;;;8.80;87.00;;;;;;4598408;28;20478;-78
2020/12/23 00:37:56;;;;;;;39.90;28.87;;;;;;;;;;4598281;28;20534;-81
2020/12/23 00:40:12;;;;;;;42.23;28.43;;;;;;;;;;4598885;28;20446;-81
2020/12/23 00:42:30;;;;;;;46.43;29.50;;;;;;;;;;4596343;28;20502;-80
2020/12/23 00:44:47;;;;;;;39.23;28.07;;;;;;;;;;4597427;28;20451;-79
2020/12/23 00:47:02;;;;;;;45.33;28.80;;;;;;;;;;4598546;28;20805;-78
2020/12/23 00:49:20;;;;;;;39.60;27.50;;;;;;;;;;4597350;28;20444;-79
2020/12/23 00:51:36;;;;;;;43.70;29.47;;;;;;;;;;4598118;28;20455;-75
2020/12/23 00:53:52;;;;;;;41.37;28.57;;;;;;;;;;4597268;28;20436;-82
2020/12/23 00:56:09;;;;;;;42.70;28.83;;;;;;;;;;4596979;28;20466;-80
2020/12/23 00:58:26;;;;;;;40.40;28.17;;;;;;;;;;4597377;28;20543;-79
2020/12/23 01:00:42;;;;;;;39.07;26.97;;;;;;;;;;4598352;28;20451;-80
2020/12/23 01:02:59;;;;;;;40.93;27.33;;;;;;;;;;4596807;28;20491;-79
2020/12/23 01:05:16;;;;;;;38.37;27.43;;;;;;;;;;4598304;28;20466;-81
2020/12/23 01:07:32;;;;;;;39.30;27.97;;;;;;;;;;4598313;28;20493;-81
2020/12/23 01:09:49;;;;;;;36.33;25.83;;;;;;;;;;4581545;28;20843;-85
2020/12/23 01:12:05;;;;;;;33.43;24.57;;;;;;;;;;4597071;28;21226;-82
2020/12/23 01:14:21;;;;;;;35.30;25.77;;;;;;;;;;4597015;28;20954;-81
2020/12/23 01:16:38;;;;;;;37.50;26.57;;;;;;;;;;4596665;28;20447;-82
2020/12/23 01:18:54;;;;;;;39.47;27.93;;;;;;;;;;4596786;28;20439;-80
2020/12/23 01:21:11;;;;;;;35.43;26.33;;;;;;;;;;4596670;28;20488;-81
2020/12/23 01:23:28;;;;;;;38.93;28.00;;;;;;;;;;4597118;28;21013;-82
2020/12/23 01:25:44;;;;;;;36.40;26.47;;;;;;;;;;4597985;28;20490;-84
2020/12/23 01:28:01;;;;;;;40.03;27.20;;;;;;;;;;4597176;28;20439;-83
2020/12/23 01:30:17;;;;;;;39.07;27.40;;;;;;;;;;4595440;28;20479;-83
2020/12/23 01:32:34;;;;;;;40.20;27.30;;;;;;;;;;4598504;28;20543;-82
2020/12/23 01:34:50;;;;;;;41.97;27.07;;;;;;;;;;4596804;28;20491;-82
2020/12/23 01:37:07;;;;;;;40.20;27.00;;;;;;;;;;4597221;28;20455;-81
2020/12/23 01:39:23;;;;;;;38.50;27.73;;;;;;;;;;4596484;28;20627;-79
2020/12/23 01:41:39;;;;;;;38.87;28.03;;;;;;;;;;4598427;28;20527;-82
2020/12/23 01:43:57;;;;;;;42.17;28.93;;;10.70;83.70;;;;;;4596551;28;20874;-80
2020/12/23 01:46:15;;;;;;;40.60;27.87;;;8.60;82.30;;;;;;4595172;28;20926;-79
2020/12/23 01:48:32;;;;;;;42.53;28.73;;;;;;;;;;4593906;28;20535;-81
2020/12/23 01:50:49;;;;;;;39.53;27.97;;;;;;;;;;4577150;28;20844;-83
2020/12/23 01:53:06;;;;;;;40.20;28.13;;;8.60;86.30;;;;;;4593939;28;20440;-80
2020/12/23 01:55:23;;;;;;;42.80;28.93;;;;;;;;;;4593773;28;20479;-80
2020/12/23 01:57:39;;;;;;;41.47;28.80;;;;;;;;;;4593741;28;20919;-85
2020/12/23 01:59:55;;;;;;;43.70;30.20;;;;;;;;;;4593618;28;20482;-80
2020/12/23 02:02:28;;;;;;;40.87;28.13;;;;;;;;;;4593742;28;20514;-82
2020/12/23 02:04:44;;;;;;;41.63;28.60;;;;;;;;;;4595228;28;20782;-78
2020/12/23 02:07:00;;;;;;;43.57;28.20;;;9.80;85.70;;;;;;4595817;28;20479;-86
2020/12/23 02:09:18;;;;;;;38.43;27.13;;;;;;;;;;4594767;28;20476;-82
2020/12/23 02:11:34;;;;;;;37.17;26.10;;;;;;;;;;4595559;28;20440;-80
2020/12/23 02:13:50;;;;;;;39.17;26.30;;;;;;;;;;4593391;28;20502;-83
2020/12/23 02:16:06;;;;;;;38.40;27.50;;;8.40;81.30;;;;;;4595779;28;20440;-83
2020/12/23 02:18:22;;;;;;;33.30;25.40;;;8.70;83.90;;;;;;4594730;28;20466;-82
2020/12/23 02:20:38;;;;;;;35.53;25.93;;;;;;;;;;4595046;28;20476;-82
2020/12/23 02:22:55;;;;;;;37.03;25.13;;;;;;;;;;4594393;28;20519;-81
2020/12/23 02:25:12;;;;;;;34.53;24.73;;;;;;;;;;4595075;28;20448;-82
2020/12/23 02:27:29;;;;;;;29.93;23.27;;;9.90;83.80;;;;;;4594955;28;20432;-82
2020/12/23 02:29:46;;;;;;;31.90;23.73;;;;;;;;;;4594707;28;20490;-82
2020/12/23 02:32:02;;;;;;;34.47;24.80;;;;;;;;;;4594922;28;20440;-83
2020/12/23 02:34:30;;;;;;;34.37;24.60;;;;;;;;;;4594531;28;20486;-83
2020/12/23 02:36:45;;;;;;;33.87;25.53;;;;;;;;;;4594641;28;20510;-83
2020/12/23 02:39:02;;;;;;;33.60;25.57;;;;;;;;;;4594405;28;20934;-82
2020/12/23 02:41:18;;;;;;;31.27;23.83;;;;;;;;;;4594795;28;20439;-84
2020/12/23 02:43:34;;;;;;;32.23;24.37;;;;;;;;;;4594463;28;20491;-83
2020/12/23 02:45:50;;;;;;;34.23;24.60;;;;;;;;;;4594642;28;20939;-83
2020/12/23 02:48:05;;;;;;;34.07;25.03;;;10.70;84.00;;;;;;4594452;28;20814;-83
2020/12/23 02:50:21;;;;;;;32.13;24.50;;;;;;;;;;4594440;28;20476;-84
2020/12/23 02:52:37;;;;;;;35.67;25.27;;;;;;;;;;4594507;28;20448;-83
2020/12/23 02:54:54;;;;;;;34.73;25.17;;;;;;;;;;4594692;28;20856;-83
2020/12/23 02:57:12;;;;;;;35.00;24.97;;;;;;;;;;4593610;28;20915;-83
2020/12/23 02:59:28;;;;;;;32.10;24.20;;;7.60;81.80;;;;;;4593353;28;20510;-84
2020/12/23 03:01:45;;;;;;;32.47;24.37;;;;;;;;;;4576485;28;20437;-85
2020/12/23 03:04:01;;;;;;;31.23;23.80;;;;;;;;;;4594409;28;20901;-83
2020/12/23 03:06:17;;;;;;;32.30;24.47;;;;;;;;;;4594049;28;20464;-83
2020/12/23 03:08:33;;;;;;;31.07;23.83;;;;;;;;;;4594574;28;20440;-84
2020/12/23 03:10:50;;;;;;;34.20;25.20;;;;;;;;;;4594281;28;20440;-86
2020/12/23 03:13:06;;;;;;;33.70;24.67;;;;;;;;;;4593014;28;20479;-83
2020/12/23 03:15:21;;;;;;;36.97;25.60;;;;;;;;;;4594404;28;20462;-81
2020/12/23 03:17:37;;;;;;;36.50;26.93;;;;;;;;;;4594113;28;20446;-83
2020/12/23 03:19:54;;;;;;;35.37;26.60;;;;;;;;;;4594292;28;20502;-83
2020/12/23 03:22:10;;;;;;;33.80;25.07;;;;;;;;;;4593365;28;20471;-84
2020/12/23 03:24:25;;;;;;;33.63;25.43;;;;;;;;;;4594585;28;20882;-83
2020/12/23 03:26:42;;;;;;;34.97;25.53;;;;;;;;;;4592367;28;20448;-83
2020/12/23 03:28:58;;;;;;;35.10;26.10;;;;;;;;;;4594116;28;20927;-82
2020/12/23 03:31:15;;;;;;;34.67;25.77;;;;;;;;;;4593897;28;20471;-82
2020/12/23 03:33:32;;;;;;;38.17;27.23;;;9.70;83.50;;;;;;4593973;28;20981;-85
2020/12/23 03:35:48;;;;;;;36.27;26.90;;;;;;;;;;4594018;28;20970;-83
2020/12/23 03:38:04;;;;;;;34.63;26.40;;;;;;;;;;4594256;28;20978;-83
2020/12/23 03:40:21;;;;;;;37.20;26.03;;;7.70;82.30;;;;;;4599049;28;20440;-84
2020/12/23 03:42:38;;;;;;;34.27;26.10;;;;;;;;;;4592440;28;20989;-84
2020/12/23 03:44:54;;;;;;;34.10;25.80;;;;;;;;;;4593450;28;20448;-85
2020/12/23 03:47:10;;;;;;;33.03;25.40;;;11.10;84.50;;;;;;4593967;28;20494;-84
2020/12/23 03:49:28;;;;;;;35.07;26.13;;;10.10;83.80;;;;;;4592150;28;20439;-84
2020/12/23 03:51:45;;;;;;;37.13;27.00;;;;;;;;;;4592394;28;20450;-85
2020/12/23 03:54:02;;;;;;;34.90;26.10;;;;;;;;;;4593193;28;20436;-85
2020/12/23 03:56:18;;;;;;;33.83;25.23;;;8.90;83.30;;;;;;4593705;28;20448;-85
2020/12/23 03:58:37;;;;;;;33.50;26.03;;;;;;;;;;4593766;28;20494;-85
2020/12/23 04:00:53;;;;;;;35.53;26.50;;;;;;;;;;4593377;28;20428;-85
2020/12/23 04:03:08;;;;;;;35.20;26.17;;;9.10;80.30;;;;;;4593120;28;20833;-83
2020/12/23 04:05:27;;;;;;;35.60;27.23;;;;;;;;;;4593145;28;20522;-83
2020/12/23 04:07:42;;;;;;;32.47;25.63;;;;;;;;;;4593088;28;20447;-84
2020/12/23 04:09:58;;;;;;;34.40;26.00;;;;;;;;;;4592980;28;20567;-83
2020/12/23 04:12:14;;;;;;;33.97;25.70;;;;;;;;;;4593675;28;20504;-82
2020/12/23 04:14:31;;;;;;;35.83;26.00;;;;;;;;;;4593282;28;20898;-82
2020/12/23 04:16:46;;;;;;;35.93;26.60;;;;;;;;;;4593335;28;20476;-83
2020/12/23 04:19:02;;;;;;;36.40;26.40;;;;;;;;;;4593108;28;20502;-83
2020/12/23 04:21:18;;;;;;;32.57;25.77;;;10.60;84.60;;;;;;4593062;28;20451;-80
2020/12/23 04:23:34;;;;;;;33.27;25.53;;;;;;;;;;4592913;28;20479;-80
2020/12/23 04:25:50;;;;;;;35.13;25.97;;;;;;;;;;4593073;28;20487;-82
2020/12/23 04:28:08;;;;;;;33.73;26.77;;;11.10;85.10;;;;;;4593005;28;20440;-81
2020/12/23 04:30:25;;;;;;;34.10;26.73;;;10.20;84.50;;;;;;4591954;28;20444;-78
2020/12/23 04:32:41;;;;;;;35.47;27.77;;;;;;;;;;4592642;28;20443;-77
2020/12/23 04:35:01;;;;;;;37.27;27.97;;;;;;;;;;4593055;28;20448;-77
2020/12/23 04:37:17;;;;;;;39.07;27.77;;;;;;;;;;4592496;28;20507;-82
2020/12/23 04:39:33;;;;;;;36.03;27.80;;;;;;;;;;4593123;28;20475;-80
2020/12/23 04:41:48;;;;;;;35.47;26.93;;;;;;;;;;4592656;28;20847;-81
2020/12/23 04:44:04;;;;;;;37.13;27.47;;;;;;;;;;4592927;28;20567;-84
2020/12/23 04:46:25;;;;;;;39.43;28.27;;;10.60;84.30;;;;;;4592831;28;20525;-88
2020/12/23 04:48:42;;;;;;;38.57;28.60;;;10.50;82.10;;;;;;4575501;28;20445;-86
2020/12/23 04:50:58;;;;;;;37.03;29.33;;;;;;;;;;4593367;28;20482;-81
2020/12/23 04:53:14;;;;;;;36.80;27.63;;;;;;;;;;4592676;28;20476;-81
2020/12/23 04:55:30;;;;;;;41.07;30.03;;;;;;;;;;4591646;28;20450;-79
2020/12/23 04:57:47;;;;;;;39.97;29.60;;;10.90;85.40;;;;;;4591384;28;20439;-81
2020/12/23 05:00:05;;;;;;;40.87;29.90;;;10.30;85.20;;;;;;4592922;28;20440;-80
2020/12/23 05:02:22;;;;;;;42.10;31.23;;;;;;;;;;4592769;28;20439;-80
2020/12/23 05:04:38;;;;;;;40.60;29.60;;;;;;;;;;4592893;28;20574;-81
2020/12/23 05:07:02;;;;;;;44.57;32.63;;;10.70;85.30;;;;;;4591286;28;20957;-81
2020/12/23 05:09:18;;;;;;;38.70;29.53;;;9.20;84.50;;;;;;4575131;28;20537;-81
2020/12/23 05:11:34;;;;;;;41.20;31.00;;;;;;;;;;4592678;28;20931;-81
2020/12/23 05:13:49;;;;;;;40.87;29.87;;;10.80;85.10;;;;;;4592867;28;20530;-81
2020/12/23 05:16:06;;;;;;;39.73;30.03;;;;;;;;;;4592203;28;20448;-83
2020/12/23 05:18:31;;;;;;;43.07;31.37;;;10.00;82.50;;;;;;4593200;28;20443;-81
2020/12/23 05:20:47;;;;;;;38.43;29.33;;;;;;;;;;4600673;28;20913;-84
2020/12/23 05:23:03;;;;;;;42.37;31.73;;;10.50;85.70;;;;;;4616077;28;20472;-85
2020/12/23 05:25:19;;;;;;;38.07;27.53;;;;;;;;;;4618022;28;20451;-90
2020/12/23 05:27:35;;;;;;;40.37;28.57;;;;;;;;;;4619494;28;20423;-87
2020/12/23 05:29:51;;;;;;;40.60;29.37;;;8.50;84.90;;;;;;4616924;28;20458;-84
2020/12/23 05:32:07;;;;;;;37.90;29.00;;;;;;;;;;4596294;28;20436;-85
2020/12/23 05:34:25;;;;;;;40.43;30.17;;;;;;;;;;4597121;28;20444;-84
2020/12/23 05:36:41;;;;;;;37.73;28.13;;;;;;;;;;4596614;28;20470;-85
2020/12/23 05:38:58;;;;;;;37.33;27.87;;;11.10;86.80;;;;;;4598164;28;20440;-82
2020/12/23 05:41:15;;;;;;;37.00;28.73;;;;;;;;;;4596439;28;20440;-84
2020/12/23 05:43:32;;;;;;;37.47;27.80;;;;;;;;;;4596125;28;20478;-85
2020/12/23 05:45:47;;;;;;;35.10;26.83;;;;;;;;;;4595878;28;20962;-83
2020/12/23 05:48:09;;;;;;;37.60;29.00;;;10.40;83.20;;;;;;4596913;28;20439;-80
2020/12/23 05:50:26;;;;;;;34.13;25.77;;;;;;;;;;4596010;28;20437;-81
2020/12/23 05:52:41;;;;;;;36.17;26.27;;;10.40;86.40;;;;;;4594327;28;20498;-82
2020/12/23 05:54:57;;;;;;;33.23;24.63;;;10.50;86.50;;;;;;4595583;28;20436;-82
2020/12/23 05:57:15;;;;;;;34.10;26.03;;;10.70;86.40;;;;;;4595792;28;20428;-81
2020/12/23 05:59:31;;;;;;;34.10;24.83;;;;;;;;;;4595090;28;20444;-82
2020/12/23 06:01:49;;;;;;;33.40;25.17;;;;;;;;;;4595546;28;20489;-82
2020/12/23 06:04:06;;;;;;;36.20;26.97;;;;;;;;;;4594047;28;20897;-81
2020/12/23 06:06:27;;;;;;;35.97;24.97;;;9.00;84.80;;;;;;4595470;28;20846;-84
2020/12/23 06:08:43;;;;;;;33.00;23.97;;;11.10;86.00;;;;;;4595441;28;20428;-80
2020/12/23 06:11:11;;;;;;;34.57;25.93;;;;;;;;;;4595321;28;20935;-82
2020/12/23 06:13:41;;;;;;;31.33;24.07;;;10.40;82.90;;;;;;4595392;28;20436;-84
2020/12/23 06:15:59;;;;;;;32.77;24.93;;;10.70;85.90;;;;;;4595039;28;20428;-85
2020/12/23 06:18:18;;;;;;;31.57;24.37;;;;;;;;;;4595502;28;20440;-86
2020/12/23 06:20:39;;;;;;;28.20;22.00;;;10.40;83.20;;;;;;4595647;28;20432;-80
2020/12/23 06:22:56;;;;;;;31.67;23.07;;;;;;;;;;4593448;28;20464;-81
2020/12/23 06:25:13;;;;;;;36.93;26.93;;;;;;;;;;4594476;28;20447;-82
2020/12/23 06:27:33;;;;;;;37.47;29.30;;;10.60;86.00;;;;;;4595058;28;20825;-81
2020/12/23 06:29:49;;;;;;;39.83;27.40;;;;;;;;;;4592807;28;20460;-81
2020/12/23 06:32:06;;;;;;;36.70;27.77;;;;;;;;;;4594026;28;20844;-85
2020/12/23 06:34:23;;;;;;;34.23;27.27;;;;;;;;;;4594641;28;20444;-84
2020/12/23 06:36:38;;;;;;;38.53;27.70;;;9.40;85.50;;;;;;4595673;28;20825;-84
2020/12/23 06:39:24;;;;;;;32.67;25.37;;;9.70;83.00;;;;;;4595342;28;20448;-84
2020/12/23 06:41:40;;;;;;;36.20;27.73;;;;;;;;;;4595641;28;20486;-84
2020/12/23 06:43:58;;;;;;;35.13;27.37;;;;;;;;;;4594949;28;20986;-85
2020/12/23 06:46:15;;;;;;;37.87;28.60;;;;;;;;;;4593119;28;20428;-84
2020/12/23 06:48:30;;;;;;;36.50;28.47;;;;;;;;;;4594722;28;21021;-85
2020/12/23 06:50:47;;;;;;;37.27;28.70;;;;;;;;;;4594311;28;20448;-84
2020/12/23 06:53:03;;;;;;;37.57;29.23;;;;;;;;;;4594726;28;20440;-85
2020/12/23 06:55:19;;;;;;;39.13;29.23;;;;;;;;;;4594369;28;20467;-87
2020/12/23 06:57:46;;;;;;;35.63;28.80;;;;;;;;;;4594424;28;20437;-85
2020/12/23 07:00:02;;;;;;;38.33;28.43;;;;;;;;;;4594944;28;20478;-85
2020/12/23 07:02:18;;;;;;;38.93;29.23;;;11.20;85.70;;;;;;4594520;28;20436;-83
2020/12/23 07:04:34;;;;;;;39.53;29.23;;;;;;;;;;4593814;28;20499;-82
2020/12/23 07:06:50;;;;;;;39.77;27.63;;;;;;;;;;4593892;28;20542;-82
2020/12/23 07:09:06;;;;;;;38.77;29.67;;;;;;;;;;4593428;28;20846;-82
2020/12/23 07:11:23;;;;;;;39.10;28.13;;;;;;;;;;4594016;28;20467;-83
2020/12/23 07:13:40;;;;;;;36.90;27.30;;;9.50;84.20;;;;;;4593778;28;20854;-82
2020/12/23 07:15:58;;;;;;;39.00;30.00;;;10.40;82.00;;;;;;4592642;28;20965;-86
2020/12/23 07:18:17;;;;;;;39.27;29.83;;;;;;;;;;4594521;28;20787;-83
2020/12/23 07:20:38;;;;;;;43.10;31.17;;;9.00;83.80;;;;;;4592367;28;20862;-78
2020/12/23 07:22:54;;;;;;;37.53;28.40;;;;;;;;;;4593573;28;20569;-78
2020/12/23 07:25:10;;;;;;;40.57;31.53;;;9.90;81.30;;;;;;4593297;28;21332;-78
2020/12/23 07:27:28;;;;;;;36.80;28.50;;;;;;;;;;4593465;28;20958;-80
2020/12/23 07:29:53;;;;;;;40.07;30.73;;;10.20;81.60;;;;;;4575431;28;20859;-79
2020/12/23 07:32:09;;;;;;;37.47;30.20;;;;;;;;;;4593389;28;20797;-80
2020/12/23 07:34:29;;;;;;;40.30;30.17;;;10.40;81.90;;;;;;4592945;28;20490;-78
2020/12/23 07:36:45;;;;;;;43.07;31.50;;;;;;;;;;4591613;28;20464;-78
2020/12/23 07:39:04;;;;;;;40.93;30.73;;;;;;;;;;4591502;28;20436;-79
2020/12/23 07:41:20;;;;;;;37.80;29.70;;;9.50;84.70;;;;;;4575034;28;20548;-81
2020/12/23 07:43:36;;;;;;;38.47;30.20;;;;;;;;;;4592821;28;20468;-78
2020/12/23 07:45:53;;;;;;;38.53;29.90;;;;;;;;;;4592108;28;20452;-79
2020/12/23 07:48:11;;;;;;;41.57;30.20;;;10.70;85.30;;;;;;4592687;28;20816;-80
2020/12/23 07:50:28;;;;;;;42.63;31.60;;;;;;;;;;4593159;28;20441;-79
2020/12/23 07:52:45;;;;;;;37.07;29.13;;;11.40;85.90;;;;;;4591444;28;20447;-78
2020/12/23 07:55:13;;;;;;;41.10;31.33;;;;;;;;;;4592718;28;20514;-79
2020/12/23 07:57:30;;;;;;;42.60;32.33;;;10.50;85.30;;;;;;4592532;28;20927;-79
2020/12/23 07:59:47;;;;;;;41.97;31.13;;;;;;;;;;4591354;28;20448;-80
2020/12/23 08:02:06;;;;;;;40.50;30.53;;;;;;;;;;4590983;28;20438;-78
2020/12/23 08:04:21;;;;;;;41.73;32.17;;;;;;;;;;4590836;28;20511;-78
2020/12/23 08:06:37;;;;;;;37.97;27.63;;;;;;;;;;4592717;28;20499;-78
2020/12/23 08:08:54;;;;;;;40.37;31.00;;;;;;;;;;4592425;28;21031;-75
2020/12/23 08:11:10;;;;;;;38.57;30.47;;;11.30;86.90;;;;;;4591464;28;20444;-78
2020/12/23 08:13:27;;;;;;;38.43;28.77;;;;;;;;;;4592282;28;20447;-76
2020/12/23 08:15:43;;;;;;;37.13;29.20;;;;;;;;;;4592512;28;20440;-78
2020/12/23 08:18:00;;;;;;;40.83;30.77;;;;;;;;;;4592614;28;20505;-79
2020/12/23 08:20:16;;;;;;;39.90;29.53;;;;;;;;;;4591158;28;20455;-80
2020/12/23 08:22:32;;;;;;;39.00;30.87;;;;;;;;;;4592119;28;20467;-79
2020/12/23 08:24:48;;;;;;;41.97;30.60;;;;;;;;;;4593014;28;20525;-78
2020/12/23 08:27:05;;;;;;;40.77;30.93;;;;;;;;;;4592183;28;20479;-78
2020/12/23 08:29:21;;;;;;;36.70;29.07;;;;;;;;;;4592354;28;20483;-80
2020/12/23 08:31:42;;;;;;;43.00;30.67;;;;;;;;;;4592254;28;20448;-79
2020/12/23 08:34:03;;;;;;;35.87;28.97;;;11.70;83.40;;;;;;4592749;28;20428;-82
2020/12/23 08:36:21;;;;;;;35.93;27.87;;;;;;;;;;4592389;28;20798;-80
2020/12/23 08:38:40;;;;;;;36.63;29.40;;;11.40;86.90;;;;;;4592062;28;20479;-81
2020/12/23 08:40:58;;;;;;;36.33;28.67;;;;;;;;;;4592560;28;21002;-79
2020/12/23 08:43:21;;;;;;;38.33;28.23;;;11.60;86.90;;;;;;4592067;28;20472;-80
2020/12/23 08:45:37;;;;;;;38.17;29.10;;;;;;;;;;4592507;28;20483;-80
2020/12/23 08:47:55;;;;;;;36.83;28.77;;;;;;;;;;4590434;28;20510;-80
2020/12/23 08:50:13;;;;;;;35.83;28.20;;;;;;;;;;4592411;28;20420;-82
2020/12/23 08:52:29;;;;;;;35.30;27.90;;;;;;;;;;4590752;28;20803;-80
2020/12/23 08:54:48;;;;;;;40.17;29.37;;;;;;;;;;4590049;28;20448;-81
2020/12/23 08:57:04;;;;;;;36.13;27.83;;;10.50;85.80;;;;;;4594204;28;20546;-81
2020/12/23 08:59:21;;;;;;;39.10;29.83;;;11.60;86.10;;;;;;4594983;28;20465;-80
2020/12/23 09:01:38;;;;;;;35.80;29.57;;;;;;;;;;4593754;28;20456;-80
2020/12/23 09:03:58;;;;;;;36.80;28.17;;;;;;;;;;4594194;28;20479;-78
2020/12/23 09:06:19;;;;;;;36.53;29.23;;;;;;;;;;4595083;28;20432;-80
2020/12/23 09:08:45;;;;;;;38.13;28.53;;;;;;;;;;4595462;28;20487;-80
2020/12/23 09:11:01;;;;;;;37.57;28.77;;;;;;;;;;4595204;28;20455;-79
2020/12/23 09:13:17;;;;;;;40.33;29.20;;;;;;;;;;4593862;28;20523;-79
2020/12/23 09:15:34;;;;;;;35.00;27.00;;;8.60;84.20;;;;;;4593945;28;20889;-80
2020/12/23 09:17:51;;;;;;;39.80;28.60;;;;;;;;;;4593970;28;20475;-80
2020/12/23 09:20:08;;;;;;;35.23;27.23;;;;;;;;;;4595387;28;20513;-80
2020/12/23 09:22:26;;;;;;;37.80;28.37;;;;;;;;;;4594983;28;20990;-78
2020/12/23 09:24:43;;;;;;;38.70;28.30;;;;;;;;;;4593780;28;20510;-80
2020/12/23 09:26:59;;;;;;;37.93;27.93;;;;;;;;;;4577048;28;20922;-80
2020/12/23 09:29:18;;;;;;;37.00;27.67;;;;;;;;;;4591774;28;20463;-78
2020/12/23 09:31:34;;;;;;;34.93;28.07;;;;;;;;;;4594649;28;20935;-80
2020/12/23 09:33:50;;;;;;;34.37;26.40;;;;;;;;;;4594671;28;20903;-78
2020/12/23 09:36:09;;;;;;;35.00;28.13;;;;;;;;;;4592969;28;20446;-82
2020/12/23 09:38:27;;;;;;;34.27;26.50;;;;;;;;;;4595021;28;20499;-82
2020/12/23 09:40:45;;;;;;;33.53;26.10;;;;;;;;;;4593596;28;20428;-84
2020/12/23 09:43:02;;;;;;;34.83;26.67;;;;;;;;;;4593606;28;20814;-79
2020/12/23 09:45:18;;;;;;;36.03;27.37;;;12.00;85.70;;;;;;4594754;28;20566;-80
2020/12/23 09:47:34;;;;;;;34.47;26.00;;;;;;;;;;4594536;28;20447;-82
2020/12/23 09:49:51;;;;;;;30.40;25.30;;;;;;;;;;4593259;28;20459;-78
2020/12/23 09:52:09;;;;;;;34.77;28.00;;;;;;;;;;4594357;28;20439;-78
2020/12/23 09:54:25;;;;;;;35.23;27.07;;;;;;;;;;4593392;28;20902;-81
2020/12/23 09:56:52;;;;;;;35.23;27.00;;;;;;;;;;4593290;28;20444;-83
2020/12/23 09:59:08;;;;;;;37.43;27.23;;;;;;;;;;4592980;28;20630;-77
2020/12/23 10:01:23;;;;;;;36.93;27.40;;;10.20;84.60;;;;;;4594235;28;20919;-80
2020/12/23 10:03:39;;;;;;;34.90;26.03;;;;;;;;;;4593640;28;20451;-78
2020/12/23 10:05:56;;;;;;;35.97;27.50;;;;;;;;;;4592260;28;20442;-79
2020/12/23 10:08:13;;;;;;;36.07;27.47;;;;;;;;;;4593917;28;20778;-77
2020/12/23 10:10:29;;;;;;;36.83;27.17;;;;;;;;;;4592786;28;21038;-77
2020/12/23 10:12:45;;;;;;;34.10;28.23;;;13.20;86.90;;;;;;4594845;28;20577;-77
2020/12/23 10:15:01;;;;;;;33.80;26.43;;;;;;;;;;4591434;28;20475;-78
2020/12/23 10:17:17;;;;;;;33.70;26.47;;;11.50;85.50;;;;;;4591071;28;20486;-77
2020/12/23 10:19:33;;;;;;;33.70;26.20;;;13.40;86.60;;;;;;4590964;28;20452;-79
2020/12/23 10:21:49;;;;;;;32.60;26.50;;;;;;;;;;4592306;28;20736;-77
2020/12/23 10:24:05;;;;;;;33.57;26.10;;;;;;;;;;4593423;28;20802;-76
2020/12/23 10:26:24;;;;;;;34.17;25.33;;;10.90;80.20;;;;;;4593899;28;20733;-80
2020/12/23 10:28:40;;;;;;;35.70;27.13;;;;;;;;;;4592435;28;20448;-79
2020/12/23 10:30:57;;;;;;;38.00;28.47;;;;;;;;;;4592142;28;20510;-78
2020/12/23 10:33:13;;;;;;;31.77;25.83;;;;;;;;;;4592324;28;20913;-79
2020/12/23 10:35:29;;;;;;;36.13;26.37;;;;;;;;;;4594253;28;20527;-80
2020/12/23 10:37:45;;;;;;;31.97;25.37;;;;;;;;;;4593285;28;20471;-79
2020/12/23 10:40:02;;;;;;;30.77;25.33;;;;;;;;;;4593657;28;20487;-78
2020/12/23 10:42:18;;;;;;;34.60;26.23;;;;;;;;;;4593666;28;20455;-77
2020/12/23 10:44:34;;;;;;;31.90;24.37;;;;;;;;;;4592223;28;20978;-79
2020/12/23 10:46:53;;;;;;;30.37;24.63;;;;;;;;;;4591942;28;21049;-77
2020/12/23 10:49:09;;;;;;;31.07;25.87;;;;;;;;;;4592229;28;20546;-78
2020/12/23 10:51:25;;;;;;;32.30;26.77;;;;;;;;;;4593583;28;20494;-78
2020/12/23 10:53:41;;;;;;;34.00;26.50;;;;;;;;;;4591443;28;20455;-78
2020/12/23 10:55:57;;;;;;;33.63;26.43;;;12.50;83.80;;;;;;4592265;28;20444;-77
2020/12/23 10:58:13;;;;;;;32.07;24.50;;;;;;;;;;4592589;28;20448;-77
2020/12/23 11:00:29;;;;;;;34.70;25.50;;;;;;;;;;4593896;28;20834;-78
2020/12/23 11:02:45;;;;;;;32.50;26.20;;;;;;;;;;4593683;28;20494;-78
2020/12/23 11:06:40;;;;;;;166.27;128.63;;;10.60;79.30;;;;;;4712090;27;20574;-83
2020/12/23 11:08:57;;;;;;;32.10;25.87;;;12.10;77.60;;;;;;4702680;28;20444;-79
2020/12/23 11:11:14;;;;;;;34.00;24.80;;;14.40;80.70;;;;;;4702538;28;20442;-79
2020/12/23 11:13:30;;;;;;;32.27;25.30;;;;;;;;;;4701851;28;20423;-79
2020/12/23 11:15:48;;;;;;;31.90;24.87;;;11.50;79.20;;;;;;4702148;28;20190;-79
2020/12/23 11:18:04;;;;;;;30.87;24.80;;;13.20;80.10;;;;;;4702162;28;20499;-80
2020/12/23 11:20:21;;;;;;;29.77;23.83;;;;;;;;;;4684386;28;20541;-78
2020/12/23 11:22:38;;;;;;;32.40;25.70;;;12.80;79.50;;;;;;4702532;28;20522;-80
2020/12/23 11:24:55;;;;;;;33.03;24.97;;;;;;;;;;4667877;28;20530;-81
2020/12/23 11:27:13;;;;;;;30.83;24.40;;;;;;;;;;4702805;28;20457;-76
2020/12/23 11:29:30;;;;;;;29.50;24.67;;;13.80;80.10;;;;;;4682037;28;20482;-77
2020/12/23 11:31:50;;;;;;;31.03;23.97;;;13.40;79.60;;;;;;4700207;28;20489;-77
2020/12/23 11:34:09;;;;;;;33.33;23.57;;;;;;;;;;4698757;28;20845;-76
2020/12/23 11:36:26;;;;;;;33.47;23.07;;;12.20;78.20;;;;;;4700045;28;20198;-78
2020/12/23 11:38:47;;;;;;;30.03;23.57;;;;;;;;;;4701247;27;20621;-78
2020/12/23 11:41:06;;;;;;;35.57;24.47;;;12.40;76.80;;;;;;4700211;28;20186;-77
2020/12/23 11:43:23;;;;;;;30.67;22.07;;;;;;;;;;4699742;28;20451;-79
2020/12/23 11:45:39;;;;;;;31.77;23.60;;;13.70;78.80;;;;;;4701698;28;20532;-76
2020/12/23 11:47:55;;;;;;;32.77;23.80;;;13.00;78.70;;;;;;4700791;28;20190;-79
2020/12/23 11:50:12;;;;;;;31.17;22.47;;;12.60;78.40;;;;;;4685101;28;20446;-78
2020/12/23 11:52:28;;;;;;;33.87;24.27;;;13.10;79.10;;;;;;4684520;28;20443;-77
2020/12/23 11:54:45;;;;;;;29.20;22.93;;;14.30;77.70;;;;;;4702601;27;20499;-78
2020/12/23 11:57:01;;;;;;;29.93;23.23;;;;;;;;;;4700701;28;20240;-79
2020/12/23 11:59:18;;;;;;;31.30;23.60;;;14.10;77.60;;;;;;4702346;27;20500;-78
2020/12/23 12:01:33;;;;;;;32.20;24.57;;;11.50;76.00;;;;;;4702539;27;20423;-78
2020/12/23 12:03:50;;;;;;;31.57;24.57;;;12.20;78.10;;;;;;4700596;28;20484;-78
2020/12/23 12:06:06;;;;;;;36.23;24.40;;;12.30;78.50;;;;;;4701440;28;20712;-78
2020/12/23 12:08:23;;;;;;;31.00;23.53;;;12.80;78.70;;;;;;4699949;28;20222;-77
2020/12/23 12:10:44;;;;;;;28.97;23.73;;;13.30;77.00;;;;;;4703298;27;20193;-78
2020/12/23 12:13:00;;;;;;;28.67;23.90;;;14.40;79.40;;;;;;4700441;28;20217;-79
2020/12/23 12:15:17;;;;;;;32.90;26.13;;;13.50;78.80;;;;;;4701109;28;20205;-77
2020/12/23 12:17:34;;;;;;;30.43;24.40;;;;;;;;;;4673115;28;20199;-77
2020/12/23 12:19:51;;;;;;;31.03;24.43;;;;;;;;;;4689975;28;20231;-77
2020/12/23 12:22:07;;;;;;;32.73;25.17;;;13.40;78.00;;;;;;4687599;28;20435;-77
2020/12/23 12:24:25;;;;;;;33.07;24.60;;;12.50;77.60;;;;;;4688826;28;20217;-77
2020/12/23 12:26:42;;;;;;;28.10;23.27;;;;;;;;;;4687079;28;20230;-78
2020/12/23 12:28:59;;;;;;;35.50;25.30;;;13.40;77.80;;;;;;4682876;28;20250;-79
2020/12/23 12:31:18;;;;;;;33.73;24.63;;;14.10;76.20;;;;;;4668353;28;20200;-78
2020/12/23 12:33:34;;;;;;;37.33;24.30;;;12.60;77.20;;;;;;4653249;28;20912;-78
2020/12/23 12:35:51;;;;;;;32.57;23.77;;;12.60;77.00;;;;;;4670709;28;20196;-77
2020/12/23 12:38:07;;;;;;;31.40;24.13;;;12.20;74.80;;;;;;4670806;28;20223;-79
2020/12/23 12:40:23;;;;;;;29.43;23.67;;;13.30;77.00;;;;;;4671124;28;20195;-79
2020/12/23 12:42:43;;;;;;;33.20;24.07;;;14.70;76.10;;;;;;4669305;28;20227;-78
2020/12/23 12:44:59;;;;;;;28.60;22.87;;;12.60;74.90;;;;;;4671230;28;20261;-79
2020/12/23 12:47:15;;;;;;;28.30;22.43;;;12.60;74.60;;;;;;4670197;28;20204;-78